sensor_id;sensor_type;location;lat;lon;timestamp;temperature;humidity
7704;DHT22;3894;49.700;10.770;2023-06-22T00:01:28;20.40;99.90
7704;DHT22;3894;49.700;10.770;2023-06-22T00:03:53;20.30;99.90
7704;DHT22;3894;49.700;10.770;2023-06-22T00:06:19;20.10;99.90
7704;DHT22;3894;49.700;10.770;2023-06-22T00:08:45;20.10;99.90
7704;DHT22;3894;49.700;10.770;2023-06-22T00:11:10;20.10;99.90
7704;DHT22;3894;49.700;10.770;2023-06-22T00:13:38;20.00;99.90
7704;DHT22;3894;49.700;10.770;2023-06-22T00:16:04;19.90;99.90
7704;DHT22;3894;49.700;10.770;2023-06-22T00:18:29;19.90;99.90
7704;DHT22;3894;49.700;10.770;2023-06-22T00:20:55;20.00;99.90
7704;DHT22;3894;49.700;10.770;2023-06-22T00:23:24;20.00;99.90
7704;DHT22;3894;49.700;10.770;2023-06-22T00:25:50;19.90;99.90
7704;DHT22;3894;49.700;10.770;2023-06-22T00:28:15;19.90;99.90
7704;DHT22;3894;49.700;10.770;2023-06-22T00:30:41;19.90;99.90
7704;DHT22;3894;49.700;10.770;2023-06-22T00:33:07;19.90;99.90
7704;DHT22;3894;49.700;10.770;2023-06-22T00:35:33;19.80;99.90
7704;DHT22;3894;49.700;10.770;2023-06-22T00:37:59;19.70;99.90
7704;DHT22;3894;49.700;10.770;2023-06-22T00:40:31;19.70;99.90
7704;DHT22;3894;49.700;10.770;2023-06-22T00:42:57;19.70;99.90
7704;DHT22;3894;49.700;10.770;2023-06-22T00:45:24;19.70;99.90
7704;DHT22;3894;49.700;10.770;2023-06-22T00:47:51;19.60;99.90
7704;DHT22;3894;49.700;10.770;2023-06-22T00:50:19;19.50;99.90
7704;DHT22;3894;49.700;10.770;2023-06-22T00:52:54;19.50;99.90
7704;DHT22;3894;49.700;10.770;2023-06-22T00:55:22;19.50;99.90
7704;DHT22;3894;49.700;10.770;2023-06-22T00:57:49;19.50;99.90
7704;DHT22;3894;49.700;10.770;2023-06-22T01:00:15;19.50;99.90
7704;DHT22;3894;49.700;10.770;2023-06-22T01:02:45;19.60;99.90
7704;DHT22;3894;49.700;10.770;2023-06-22T01:05:15;19.60;99.90
7704;DHT22;3894;49.700;10.770;2023-06-22T01:10:53;19.80;99.90
7704;DHT22;3894;49.700;10.770;2023-06-22T01:16:29;19.70;99.90
7704;DHT22;3894;49.700;10.770;2023-06-22T01:18:57;19.70;99.90
7704;DHT22;3894;49.700;10.770;2023-06-22T01:21:27;19.60;99.90
7704;DHT22;3894;49.700;10.770;2023-06-22T01:24:18;19.60;99.90
7704;DHT22;3894;49.700;10.770;2023-06-22T01:27:17;19.60;99.90
7704;DHT22;3894;49.700;10.770;2023-06-22T01:29:55;19.60;99.90
7704;DHT22;3894;49.700;10.770;2023-06-22T01:32:34;19.60;99.90
7704;DHT22;3894;49.700;10.770;2023-06-22T01:35:01;19.60;99.90
7704;DHT22;3894;49.700;10.770;2023-06-22T01:37:29;19.50;99.90
7704;DHT22;3894;49.700;10.770;2023-06-22T01:39:58;19.50;99.90
7704;DHT22;3894;49.700;10.770;2023-06-22T01:42:25;19.50;99.90
7704;DHT22;3894;49.700;10.770;2023-06-22T01:44:54;19.50;99.90
7704;DHT22;3894;49.700;10.770;2023-06-22T01:47:22;19.50;99.90
7704;DHT22;3894;49.700;10.770;2023-06-22T01:49:48;19.60;99.90
7704;DHT22;3894;49.700;10.770;2023-06-22T01:52:15;19.60;99.90
7704;DHT22;3894;49.700;10.770;2023-06-22T01:54:41;19.50;99.90
7704;DHT22;3894;49.700;10.770;2023-06-22T01:57:07;19.50;99.90
7704;DHT22;3894;49.700;10.770;2023-06-22T01:59:39;19.50;99.90
7704;DHT22;3894;49.700;10.770;2023-06-22T02:02:10;19.50;99.90
7704;DHT22;3894;49.700;10.770;2023-06-22T02:04:54;19.50;99.90
7704;DHT22;3894;49.700;10.770;2023-06-22T02:07:23;19.50;99.90
7704;DHT22;3894;49.700;10.770;2023-06-22T02:09:48;19.40;99.90
7704;DHT22;3894;49.700;10.770;2023-06-22T02:12:18;19.30;99.90
7704;DHT22;3894;49.700;10.770;2023-06-22T02:14:47;19.30;99.90
7704;DHT22;3894;49.700;10.770;2023-06-22T02:17:13;19.40;99.90
7704;DHT22;3894;49.700;10.770;2023-06-22T02:19:42;19.40;99.90
7704;DHT22;3894;49.700;10.770;2023-06-22T02:22:07;19.40;99.90
7704;DHT22;3894;49.700;10.770;2023-06-22T02:24:33;19.20;99.90
7704;DHT22;3894;49.700;10.770;2023-06-22T02:27:00;19.10;99.90
7704;DHT22;3894;49.700;10.770;2023-06-22T02:29:25;19.10;99.90
7704;DHT22;3894;49.700;10.770;2023-06-22T02:31:52;19.10;99.90
7704;DHT22;3894;49.700;10.770;2023-06-22T02:34:18;19.00;99.90
7704;DHT22;3894;49.700;10.770;2023-06-22T02:36:48;18.80;99.90
7704;DHT22;3894;49.700;10.770;2023-06-22T02:39:20;18.50;99.90
7704;DHT22;3894;49.700;10.770;2023-06-22T02:41:50;18.20;99.90
7704;DHT22;3894;49.700;10.770;2023-06-22T02:44:18;18.20;99.90
7704;DHT22;3894;49.700;10.770;2023-06-22T02:46:44;18.30;99.90
7704;DHT22;3894;49.700;10.770;2023-06-22T02:49:11;18.50;99.90
7704;DHT22;3894;49.700;10.770;2023-06-22T02:51:38;18.50;99.90
7704;DHT22;3894;49.700;10.770;2023-06-22T02:54:05;18.60;99.90
7704;DHT22;3894;49.700;10.770;2023-06-22T02:56:31;18.60;99.90
7704;DHT22;3894;49.700;10.770;2023-06-22T02:58:56;18.70;99.90
7704;DHT22;3894;49.700;10.770;2023-06-22T03:01:29;18.80;99.90
7704;DHT22;3894;49.700;10.770;2023-06-22T03:03:58;18.80;99.90
7704;DHT22;3894;49.700;10.770;2023-06-22T03:06:24;18.90;99.90
7704;DHT22;3894;49.700;10.770;2023-06-22T03:08:58;18.90;99.90
7704;DHT22;3894;49.700;10.770;2023-06-22T03:11:24;18.90;99.90
7704;DHT22;3894;49.700;10.770;2023-06-22T03:13:49;19.00;99.90
7704;DHT22;3894;49.700;10.770;2023-06-22T03:16:17;19.00;99.90
7704;DHT22;3894;49.700;10.770;2023-06-22T03:18:43;19.00;99.90
7704;DHT22;3894;49.700;10.770;2023-06-22T03:21:09;19.00;99.90
7704;DHT22;3894;49.700;10.770;2023-06-22T03:23:34;19.10;99.90
7704;DHT22;3894;49.700;10.770;2023-06-22T03:26:00;19.10;99.90
7704;DHT22;3894;49.700;10.770;2023-06-22T03:28:25;19.10;99.90
7704;DHT22;3894;49.700;10.770;2023-06-22T03:30:51;19.10;99.90
7704;DHT22;3894;49.700;10.770;2023-06-22T03:33:16;19.20;99.90
7704;DHT22;3894;49.700;10.770;2023-06-22T03:35:42;19.20;99.90
7704;DHT22;3894;49.700;10.770;2023-06-22T03:38:08;19.20;99.90
7704;DHT22;3894;49.700;10.770;2023-06-22T03:40:33;19.20;99.90
7704;DHT22;3894;49.700;10.770;2023-06-22T03:42:59;19.30;99.90
7704;DHT22;3894;49.700;10.770;2023-06-22T03:45:24;19.30;99.90
7704;DHT22;3894;49.700;10.770;2023-06-22T03:47:50;19.30;99.90
7704;DHT22;3894;49.700;10.770;2023-06-22T03:50:15;19.40;99.90
7704;DHT22;3894;49.700;10.770;2023-06-22T03:52:41;19.30;99.90
7704;DHT22;3894;49.700;10.770;2023-06-22T03:55:07;19.30;99.90
7704;DHT22;3894;49.700;10.770;2023-06-22T03:57:33;19.30;99.90
7704;DHT22;3894;49.700;10.770;2023-06-22T03:59:59;19.30;99.90
7704;DHT22;3894;49.700;10.770;2023-06-22T04:02:25;19.30;99.90
7704;DHT22;3894;49.700;10.770;2023-06-22T04:04:51;19.30;99.90
7704;DHT22;3894;49.700;10.770;2023-06-22T04:07:17;19.30;99.90
7704;DHT22;3894;49.700;10.770;2023-06-22T04:09:43;19.40;99.90
7704;DHT22;3894;49.700;10.770;2023-06-22T04:12:09;19.40;99.90
7704;DHT22;3894;49.700;10.770;2023-06-22T04:14:35;19.40;99.90
7704;DHT22;3894;49.700;10.770;2023-06-22T04:17:01;19.40;99.90
7704;DHT22;3894;49.700;10.770;2023-06-22T04:19:27;19.50;99.90
7704;DHT22;3894;49.700;10.770;2023-06-22T04:21:53;19.50;99.90
7704;DHT22;3894;49.700;10.770;2023-06-22T04:24:18;19.50;99.90
7704;DHT22;3894;49.700;10.770;2023-06-22T04:26:44;19.50;99.90
7704;DHT22;3894;49.700;10.770;2023-06-22T04:29:11;19.50;99.90
7704;DHT22;3894;49.700;10.770;2023-06-22T04:31:36;19.50;99.90
7704;DHT22;3894;49.700;10.770;2023-06-22T04:34:04;19.50;99.90
7704;DHT22;3894;49.700;10.770;2023-06-22T04:36:37;19.50;99.90
7704;DHT22;3894;49.700;10.770;2023-06-22T04:39:10;19.50;99.90
7704;DHT22;3894;49.700;10.770;2023-06-22T04:41:37;19.60;99.90
7704;DHT22;3894;49.700;10.770;2023-06-22T04:44:16;19.60;99.90
7704;DHT22;3894;49.700;10.770;2023-06-22T04:46:49;19.70;99.90
7704;DHT22;3894;49.700;10.770;2023-06-22T04:49:22;19.70;99.90
7704;DHT22;3894;49.700;10.770;2023-06-22T04:51:48;19.80;99.90
7704;DHT22;3894;49.700;10.770;2023-06-22T04:54:17;19.80;99.90
7704;DHT22;3894;49.700;10.770;2023-06-22T04:56:42;19.90;99.90
7704;DHT22;3894;49.700;10.770;2023-06-22T04:59:08;19.90;99.90
7704;DHT22;3894;49.700;10.770;2023-06-22T05:01:33;20.00;99.90
7704;DHT22;3894;49.700;10.770;2023-06-22T05:04:00;20.10;99.90
7704;DHT22;3894;49.700;10.770;2023-06-22T05:06:27;20.50;99.90
7704;DHT22;3894;49.700;10.770;2023-06-22T05:08:57;20.80;99.90
7704;DHT22;3894;49.700;10.770;2023-06-22T05:11:27;21.10;99.90
7704;DHT22;3894;49.700;10.770;2023-06-22T05:13:53;21.30;99.90
7704;DHT22;3894;49.700;10.770;2023-06-22T05:16:20;21.30;99.90
7704;DHT22;3894;49.700;10.770;2023-06-22T05:18:51;21.40;99.90
7704;DHT22;3894;49.700;10.770;2023-06-22T05:21:17;21.50;99.90
7704;DHT22;3894;49.700;10.770;2023-06-22T05:23:43;21.60;99.90
7704;DHT22;3894;49.700;10.770;2023-06-22T05:26:08;21.80;99.90
7704;DHT22;3894;49.700;10.770;2023-06-22T05:28:35;22.00;99.90
7704;DHT22;3894;49.700;10.770;2023-06-22T05:31:01;22.10;99.90
7704;DHT22;3894;49.700;10.770;2023-06-22T05:33:26;22.20;99.90
7704;DHT22;3894;49.700;10.770;2023-06-22T05:35:52;22.30;99.90
7704;DHT22;3894;49.700;10.770;2023-06-22T05:38:17;22.40;99.90
7704;DHT22;3894;49.700;10.770;2023-06-22T05:40:43;22.50;99.90
7704;DHT22;3894;49.700;10.770;2023-06-22T05:43:08;22.60;99.90
7704;DHT22;3894;49.700;10.770;2023-06-22T05:45:34;22.60;99.90
7704;DHT22;3894;49.700;10.770;2023-06-22T05:47:59;22.60;99.90
7704;DHT22;3894;49.700;10.770;2023-06-22T05:50:26;22.80;99.90
7704;DHT22;3894;49.700;10.770;2023-06-22T05:52:52;23.00;99.90
7704;DHT22;3894;49.700;10.770;2023-06-22T05:55:17;23.00;99.90
7704;DHT22;3894;49.700;10.770;2023-06-22T05:57:44;23.20;99.90
7704;DHT22;3894;49.700;10.770;2023-06-22T06:00:10;23.20;99.90
7704;DHT22;3894;49.700;10.770;2023-06-22T06:02:36;23.30;99.90
7704;DHT22;3894;49.700;10.770;2023-06-22T06:05:02;23.40;99.90
7704;DHT22;3894;49.700;10.770;2023-06-22T06:07:28;23.50;99.90
7704;DHT22;3894;49.700;10.770;2023-06-22T06:09:54;23.60;99.90
7704;DHT22;3894;49.700;10.770;2023-06-22T06:12:20;23.70;99.90
7704;DHT22;3894;49.700;10.770;2023-06-22T06:14:45;23.80;99.90
7704;DHT22;3894;49.700;10.770;2023-06-22T06:17:12;23.90;99.90
7704;DHT22;3894;49.700;10.770;2023-06-22T06:19:38;24.00;99.90
7704;DHT22;3894;49.700;10.770;2023-06-22T06:22:04;24.10;99.90
7704;DHT22;3894;49.700;10.770;2023-06-22T06:24:29;24.20;99.90
7704;DHT22;3894;49.700;10.770;2023-06-22T06:26:55;24.40;99.90
7704;DHT22;3894;49.700;10.770;2023-06-22T06:29:20;24.60;99.90
7704;DHT22;3894;49.700;10.770;2023-06-22T06:31:46;24.70;99.90
7704;DHT22;3894;49.700;10.770;2023-06-22T06:34:12;24.80;99.90
7704;DHT22;3894;49.700;10.770;2023-06-22T06:36:37;24.90;99.90
7704;DHT22;3894;49.700;10.770;2023-06-22T06:39:03;24.90;99.90
7704;DHT22;3894;49.700;10.770;2023-06-22T06:41:29;24.90;99.90
7704;DHT22;3894;49.700;10.770;2023-06-22T06:43:54;25.10;99.90
7704;DHT22;3894;49.700;10.770;2023-06-22T06:46:20;25.20;99.90
7704;DHT22;3894;49.700;10.770;2023-06-22T06:48:46;25.20;99.90
7704;DHT22;3894;49.700;10.770;2023-06-22T06:51:12;25.20;99.90
7704;DHT22;3894;49.700;10.770;2023-06-22T06:53:38;25.40;99.90
7704;DHT22;3894;49.700;10.770;2023-06-22T06:56:03;25.50;99.90
7704;DHT22;3894;49.700;10.770;2023-06-22T06:58:31;25.60;99.90
7704;DHT22;3894;49.700;10.770;2023-06-22T07:00:56;25.70;99.90
7704;DHT22;3894;49.700;10.770;2023-06-22T07:03:22;25.70;99.90
7704;DHT22;3894;49.700;10.770;2023-06-22T07:05:48;25.80;99.90
7704;DHT22;3894;49.700;10.770;2023-06-22T07:08:13;26.00;99.90
7704;DHT22;3894;49.700;10.770;2023-06-22T07:10:39;26.10;99.90
7704;DHT22;3894;49.700;10.770;2023-06-22T07:13:04;26.20;99.90
7704;DHT22;3894;49.700;10.770;2023-06-22T07:15:30;26.30;99.90
7704;DHT22;3894;49.700;10.770;2023-06-22T07:17:55;26.30;99.90
7704;DHT22;3894;49.700;10.770;2023-06-22T07:20:21;26.40;99.90
7704;DHT22;3894;49.700;10.770;2023-06-22T07:22:46;26.40;99.90
7704;DHT22;3894;49.700;10.770;2023-06-22T07:25:12;26.40;99.90
7704;DHT22;3894;49.700;10.770;2023-06-22T07:27:47;26.50;99.90
7704;DHT22;3894;49.700;10.770;2023-06-22T07:30:21;26.50;99.90
7704;DHT22;3894;49.700;10.770;2023-06-22T07:32:47;26.70;99.90
7704;DHT22;3894;49.700;10.770;2023-06-22T07:35:13;26.70;99.90
7704;DHT22;3894;49.700;10.770;2023-06-22T07:37:38;26.80;99.90
7704;DHT22;3894;49.700;10.770;2023-06-22T07:40:04;26.80;99.90
7704;DHT22;3894;49.700;10.770;2023-06-22T07:42:32;27.00;99.90
7704;DHT22;3894;49.700;10.770;2023-06-22T07:44:58;27.00;99.90
7704;DHT22;3894;49.700;10.770;2023-06-22T07:47:24;27.00;99.90
7704;DHT22;3894;49.700;10.770;2023-06-22T07:49:52;27.20;99.90
7704;DHT22;3894;49.700;10.770;2023-06-22T07:52:20;26.90;99.90
7704;DHT22;3894;49.700;10.770;2023-06-22T07:54:46;26.70;99.90
7704;DHT22;3894;49.700;10.770;2023-06-22T07:57:12;26.80;99.90
7704;DHT22;3894;49.700;10.770;2023-06-22T07:59:38;26.90;99.90
7704;DHT22;3894;49.700;10.770;2023-06-22T08:02:04;27.00;99.90
7704;DHT22;3894;49.700;10.770;2023-06-22T08:04:30;27.20;99.90
7704;DHT22;3894;49.700;10.770;2023-06-22T08:07:00;27.20;99.90
7704;DHT22;3894;49.700;10.770;2023-06-22T08:09:28;27.30;99.90
7704;DHT22;3894;49.700;10.770;2023-06-22T08:11:54;27.60;99.90
7704;DHT22;3894;49.700;10.770;2023-06-22T08:14:21;27.80;99.90
7704;DHT22;3894;49.700;10.770;2023-06-22T08:16:46;28.00;99.90
7704;DHT22;3894;49.700;10.770;2023-06-22T08:19:12;28.10;99.90
7704;DHT22;3894;49.700;10.770;2023-06-22T08:21:38;28.10;99.90
7704;DHT22;3894;49.700;10.770;2023-06-22T08:24:04;28.20;99.90
7704;DHT22;3894;49.700;10.770;2023-06-22T08:26:29;28.30;99.90
7704;DHT22;3894;49.700;10.770;2023-06-22T08:28:55;28.30;99.90
7704;DHT22;3894;49.700;10.770;2023-06-22T08:31:20;28.50;99.90
7704;DHT22;3894;49.700;10.770;2023-06-22T08:33:46;28.60;99.90
7704;DHT22;3894;49.700;10.770;2023-06-22T08:36:12;28.60;99.90
7704;DHT22;3894;49.700;10.770;2023-06-22T08:38:39;28.80;99.90
7704;DHT22;3894;49.700;10.770;2023-06-22T08:41:04;28.80;99.90
7704;DHT22;3894;49.700;10.770;2023-06-22T08:43:30;28.80;99.90
7704;DHT22;3894;49.700;10.770;2023-06-22T08:45:55;28.80;99.90
7704;DHT22;3894;49.700;10.770;2023-06-22T08:48:21;28.80;99.90
7704;DHT22;3894;49.700;10.770;2023-06-22T08:50:46;28.90;99.90
7704;DHT22;3894;49.700;10.770;2023-06-22T08:53:12;29.00;99.90
7704;DHT22;3894;49.700;10.770;2023-06-22T08:55:38;29.10;99.90
7704;DHT22;3894;49.700;10.770;2023-06-22T08:58:03;29.10;99.90
7704;DHT22;3894;49.700;10.770;2023-06-22T09:00:29;29.10;99.90
7704;DHT22;3894;49.700;10.770;2023-06-22T09:02:58;29.10;99.90
7704;DHT22;3894;49.700;10.770;2023-06-22T09:05:24;29.10;99.90
7704;DHT22;3894;49.700;10.770;2023-06-22T09:07:51;29.20;99.90
7704;DHT22;3894;49.700;10.770;2023-06-22T09:10:17;29.40;99.90
7704;DHT22;3894;49.700;10.770;2023-06-22T09:12:43;29.50;99.90
7704;DHT22;3894;49.700;10.770;2023-06-22T09:15:09;29.50;99.90
7704;DHT22;3894;49.700;10.770;2023-06-22T09:17:35;29.50;99.90
7704;DHT22;3894;49.700;10.770;2023-06-22T09:20:02;29.70;99.90
7704;DHT22;3894;49.700;10.770;2023-06-22T09:22:31;29.80;99.90
7704;DHT22;3894;49.700;10.770;2023-06-22T09:24:57;29.80;99.90
7704;DHT22;3894;49.700;10.770;2023-06-22T09:27:22;29.80;99.90
7704;DHT22;3894;49.700;10.770;2023-06-22T09:29:49;29.80;99.90
7704;DHT22;3894;49.700;10.770;2023-06-22T09:32:15;29.90;99.90
7704;DHT22;3894;49.700;10.770;2023-06-22T09:34:40;29.90;99.90
7704;DHT22;3894;49.700;10.770;2023-06-22T09:37:06;30.10;99.90
7704;DHT22;3894;49.700;10.770;2023-06-22T09:39:31;30.30;99.90
7704;DHT22;3894;49.700;10.770;2023-06-22T09:42:00;30.50;99.90
7704;DHT22;3894;49.700;10.770;2023-06-22T09:44:25;30.70;99.90
7704;DHT22;3894;49.700;10.770;2023-06-22T09:46:51;30.60;99.90
7704;DHT22;3894;49.700;10.770;2023-06-22T09:49:17;30.60;99.90
7704;DHT22;3894;49.700;10.770;2023-06-22T09:51:42;30.70;99.90
7704;DHT22;3894;49.700;10.770;2023-06-22T09:54:08;30.70;99.90
7704;DHT22;3894;49.700;10.770;2023-06-22T09:56:33;30.80;99.90
7704;DHT22;3894;49.700;10.770;2023-06-22T09:58:59;30.90;99.90
7704;DHT22;3894;49.700;10.770;2023-06-22T10:01:24;31.10;99.90
7704;DHT22;3894;49.700;10.770;2023-06-22T10:03:52;31.20;99.90
7704;DHT22;3894;49.700;10.770;2023-06-22T10:06:20;31.30;99.90
7704;DHT22;3894;49.700;10.770;2023-06-22T10:08:45;31.30;99.90
7704;DHT22;3894;49.700;10.770;2023-06-22T10:11:11;31.40;99.90
7704;DHT22;3894;49.700;10.770;2023-06-22T10:13:36;31.40;99.90
7704;DHT22;3894;49.700;10.770;2023-06-22T10:16:02;31.50;99.90
7704;DHT22;3894;49.700;10.770;2023-06-22T10:18:28;31.50;99.90
7704;DHT22;3894;49.700;10.770;2023-06-22T10:20:53;31.70;99.90
7704;DHT22;3894;49.700;10.770;2023-06-22T10:23:20;31.80;99.90
7704;DHT22;3894;49.700;10.770;2023-06-22T10:25:45;31.80;99.90
7704;DHT22;3894;49.700;10.770;2023-06-22T10:28:11;31.70;99.90
7704;DHT22;3894;49.700;10.770;2023-06-22T10:30:38;32.00;99.90
7704;DHT22;3894;49.700;10.770;2023-06-22T10:33:07;32.10;99.70
7704;DHT22;3894;49.700;10.770;2023-06-22T10:35:34;32.20;99.20
7704;DHT22;3894;49.700;10.770;2023-06-22T10:38:00;32.30;99.10
7704;DHT22;3894;49.700;10.770;2023-06-22T10:40:25;32.30;98.50
7704;DHT22;3894;49.700;10.770;2023-06-22T10:42:51;32.40;98.20
7704;DHT22;3894;49.700;10.770;2023-06-22T10:45:17;32.50;98.30
7704;DHT22;3894;49.700;10.770;2023-06-22T10:47:42;32.60;98.10
7704;DHT22;3894;49.700;10.770;2023-06-22T10:50:08;32.60;97.70
7704;DHT22;3894;49.700;10.770;2023-06-22T10:52:34;32.70;97.70
7704;DHT22;3894;49.700;10.770;2023-06-22T10:54:59;32.90;97.60
7704;DHT22;3894;49.700;10.770;2023-06-22T10:57:25;32.80;96.80
7704;DHT22;3894;49.700;10.770;2023-06-22T10:59:51;33.00;96.40
7704;DHT22;3894;49.700;10.770;2023-06-22T11:02:16;33.10;96.10
7704;DHT22;3894;49.700;10.770;2023-06-22T11:04:42;32.90;95.40
7704;DHT22;3894;49.700;10.770;2023-06-22T11:07:08;33.00;95.60
7704;DHT22;3894;49.700;10.770;2023-06-22T11:09:34;33.40;95.80
7704;DHT22;3894;49.700;10.770;2023-06-22T11:11:59;33.50;94.70
7704;DHT22;3894;49.700;10.770;2023-06-22T11:14:25;33.10;94.70
7704;DHT22;3894;49.700;10.770;2023-06-22T11:16:51;32.60;95.20
7704;DHT22;3894;49.700;10.770;2023-06-22T11:19:16;32.70;95.60
7704;DHT22;3894;49.700;10.770;2023-06-22T11:21:42;33.10;95.40
7704;DHT22;3894;49.700;10.770;2023-06-22T11:24:08;33.40;95.00
7704;DHT22;3894;49.700;10.770;2023-06-22T11:26:34;33.30;95.10
7704;DHT22;3894;49.700;10.770;2023-06-22T11:29:00;33.10;95.00
7704;DHT22;3894;49.700;10.770;2023-06-22T11:31:25;33.00;94.90
7704;DHT22;3894;49.700;10.770;2023-06-22T11:33:51;33.10;95.00
7704;DHT22;3894;49.700;10.770;2023-06-22T11:36:18;33.30;94.40
7704;DHT22;3894;49.700;10.770;2023-06-22T11:38:44;33.70;94.60
7704;DHT22;3894;49.700;10.770;2023-06-22T11:41:10;34.00;94.00
7704;DHT22;3894;49.700;10.770;2023-06-22T11:43:35;34.10;94.60
7704;DHT22;3894;49.700;10.770;2023-06-22T11:46:03;34.30;94.10
7704;DHT22;3894;49.700;10.770;2023-06-22T11:48:29;34.30;93.30
7704;DHT22;3894;49.700;10.770;2023-06-22T11:50:55;34.30;94.00
7704;DHT22;3894;49.700;10.770;2023-06-22T11:53:21;34.50;93.00
7704;DHT22;3894;49.700;10.770;2023-06-22T11:55:47;34.50;93.00
7704;DHT22;3894;49.700;10.770;2023-06-22T11:58:13;34.40;93.10
7704;DHT22;3894;49.700;10.770;2023-06-22T12:00:38;34.50;93.00
7704;DHT22;3894;49.700;10.770;2023-06-22T12:03:04;34.60;92.70
7704;DHT22;3894;49.700;10.770;2023-06-22T12:05:30;34.70;92.90
7704;DHT22;3894;49.700;10.770;2023-06-22T12:07:56;34.70;92.40
7704;DHT22;3894;49.700;10.770;2023-06-22T12:10:22;34.80;92.70
7704;DHT22;3894;49.700;10.770;2023-06-22T12:12:48;34.90;92.20
7704;DHT22;3894;49.700;10.770;2023-06-22T12:15:13;34.70;92.30
7704;DHT22;3894;49.700;10.770;2023-06-22T12:17:39;34.50;92.70
7704;DHT22;3894;49.700;10.770;2023-06-22T12:20:06;34.40;92.10
7704;DHT22;3894;49.700;10.770;2023-06-22T12:22:32;34.10;92.00
7704;DHT22;3894;49.700;10.770;2023-06-22T12:24:58;33.80;92.30
7704;DHT22;3894;49.700;10.770;2023-06-22T12:27:24;33.70;92.80
7704;DHT22;3894;49.700;10.770;2023-06-22T12:29:50;33.80;92.90
7704;DHT22;3894;49.700;10.770;2023-06-22T12:32:15;33.90;92.20
7704;DHT22;3894;49.700;10.770;2023-06-22T12:34:42;33.80;92.50
7704;DHT22;3894;49.700;10.770;2023-06-22T12:37:08;33.60;92.50
7704;DHT22;3894;49.700;10.770;2023-06-22T12:39:33;33.70;92.80
7704;DHT22;3894;49.700;10.770;2023-06-22T12:41:59;33.90;92.70
7704;DHT22;3894;49.700;10.770;2023-06-22T12:44:24;34.20;92.60
7704;DHT22;3894;49.700;10.770;2023-06-22T12:46:50;34.40;92.10
7704;DHT22;3894;49.700;10.770;2023-06-22T12:49:16;34.50;91.90
7704;DHT22;3894;49.700;10.770;2023-06-22T12:51:43;34.70;91.50
7704;DHT22;3894;49.700;10.770;2023-06-22T12:54:09;34.70;91.90
7704;DHT22;3894;49.700;10.770;2023-06-22T12:56:35;34.80;91.70
7704;DHT22;3894;49.700;10.770;2023-06-22T12:59:01;34.60;91.10
7704;DHT22;3894;49.700;10.770;2023-06-22T13:01:30;34.30;90.70
7704;DHT22;3894;49.700;10.770;2023-06-22T13:03:57;34.00;91.20
7704;DHT22;3894;49.700;10.770;2023-06-22T13:06:23;33.90;91.10
7704;DHT22;3894;49.700;10.770;2023-06-22T13:08:49;33.80;91.40
7704;DHT22;3894;49.700;10.770;2023-06-22T13:11:15;33.80;91.40
7704;DHT22;3894;49.700;10.770;2023-06-22T13:13:40;33.70;91.20
7704;DHT22;3894;49.700;10.770;2023-06-22T13:16:07;33.80;91.30
7704;DHT22;3894;49.700;10.770;2023-06-22T13:18:32;34.10;90.80
7704;DHT22;3894;49.700;10.770;2023-06-22T13:20:59;34.30;90.70
7704;DHT22;3894;49.700;10.770;2023-06-22T13:23:25;34.40;90.40
7704;DHT22;3894;49.700;10.770;2023-06-22T13:25:51;34.60;90.20
7704;DHT22;3894;49.700;10.770;2023-06-22T13:28:17;34.80;90.00
7704;DHT22;3894;49.700;10.770;2023-06-22T13:30:43;35.00;89.70
7704;DHT22;3894;49.700;10.770;2023-06-22T13:33:11;34.90;88.70
7704;DHT22;3894;49.700;10.770;2023-06-22T13:35:36;34.70;88.90
7704;DHT22;3894;49.700;10.770;2023-06-22T13:38:03;34.30;88.20
7704;DHT22;3894;49.700;10.770;2023-06-22T13:40:28;34.10;89.50
7704;DHT22;3894;49.700;10.770;2023-06-22T13:42:55;34.10;90.00
7704;DHT22;3894;49.700;10.770;2023-06-22T13:45:20;34.10;89.50
7704;DHT22;3894;49.700;10.770;2023-06-22T13:47:46;34.00;89.30
7704;DHT22;3894;49.700;10.770;2023-06-22T13:50:12;33.80;90.00
7704;DHT22;3894;49.700;10.770;2023-06-22T13:52:40;33.60;90.20
7704;DHT22;3894;49.700;10.770;2023-06-22T13:55:06;33.40;90.70
7704;DHT22;3894;49.700;10.770;2023-06-22T13:57:35;33.30;90.60
7704;DHT22;3894;49.700;10.770;2023-06-22T14:00:01;33.20;90.60
7704;DHT22;3894;49.700;10.770;2023-06-22T14:02:27;33.20;90.90
7704;DHT22;3894;49.700;10.770;2023-06-22T14:04:53;33.30;90.90
7704;DHT22;3894;49.700;10.770;2023-06-22T14:07:19;33.60;91.00
7704;DHT22;3894;49.700;10.770;2023-06-22T14:09:46;33.90;90.80
7704;DHT22;3894;49.700;10.770;2023-06-22T14:12:12;34.00;89.70
7704;DHT22;3894;49.700;10.770;2023-06-22T14:14:37;34.10;89.10
7704;DHT22;3894;49.700;10.770;2023-06-22T14:17:04;34.20;89.40
7704;DHT22;3894;49.700;10.770;2023-06-22T14:19:30;34.20;88.00
7704;DHT22;3894;49.700;10.770;2023-06-22T14:21:55;34.10;87.00
7704;DHT22;3894;49.700;10.770;2023-06-22T14:24:22;34.20;88.60
7704;DHT22;3894;49.700;10.770;2023-06-22T14:26:48;34.30;88.60
7704;DHT22;3894;49.700;10.770;2023-06-22T14:29:14;34.30;87.90
7704;DHT22;3894;49.700;10.770;2023-06-22T14:31:39;34.20;87.70
7704;DHT22;3894;49.700;10.770;2023-06-22T14:34:05;34.10;88.20
7704;DHT22;3894;49.700;10.770;2023-06-22T14:36:31;34.20;87.60
7704;DHT22;3894;49.700;10.770;2023-06-22T14:38:57;34.10;86.40
7704;DHT22;3894;49.700;10.770;2023-06-22T14:41:22;34.10;84.10
7704;DHT22;3894;49.700;10.770;2023-06-22T14:43:49;34.10;84.60
7704;DHT22;3894;49.700;10.770;2023-06-22T14:46:15;34.10;86.30
7704;DHT22;3894;49.700;10.770;2023-06-22T14:48:41;34.10;85.10
7704;DHT22;3894;49.700;10.770;2023-06-22T14:51:08;33.90;85.30
7704;DHT22;3894;49.700;10.770;2023-06-22T14:53:35;33.80;85.50
7704;DHT22;3894;49.700;10.770;2023-06-22T14:56:00;33.80;86.30
7704;DHT22;3894;49.700;10.770;2023-06-22T14:58:30;33.90;85.80
7704;DHT22;3894;49.700;10.770;2023-06-22T15:01:01;33.90;85.30
7704;DHT22;3894;49.700;10.770;2023-06-22T15:03:27;34.10;85.60
7704;DHT22;3894;49.700;10.770;2023-06-22T15:05:55;34.30;85.20
7704;DHT22;3894;49.700;10.770;2023-06-22T15:08:23;34.30;83.80
7704;DHT22;3894;49.700;10.770;2023-06-22T15:10:49;34.40;83.50
7704;DHT22;3894;49.700;10.770;2023-06-22T15:13:15;34.50;82.80
7704;DHT22;3894;49.700;10.770;2023-06-22T15:15:42;34.50;83.00
7704;DHT22;3894;49.700;10.770;2023-06-22T15:18:08;34.50;83.00
7704;DHT22;3894;49.700;10.770;2023-06-22T15:20:33;34.40;83.20
7704;DHT22;3894;49.700;10.770;2023-06-22T15:22:59;34.30;83.60
7704;DHT22;3894;49.700;10.770;2023-06-22T15:25:25;34.20;83.40
7704;DHT22;3894;49.700;10.770;2023-06-22T15:27:50;34.30;83.60
7704;DHT22;3894;49.700;10.770;2023-06-22T15:30:16;34.30;83.40
7704;DHT22;3894;49.700;10.770;2023-06-22T15:32:44;34.30;83.40
7704;DHT22;3894;49.700;10.770;2023-06-22T15:35:11;34.30;83.60
7704;DHT22;3894;49.700;10.770;2023-06-22T15:37:36;34.30;84.10
7704;DHT22;3894;49.700;10.770;2023-06-22T15:40:03;34.30;84.50
7704;DHT22;3894;49.700;10.770;2023-06-22T15:42:28;34.30;85.00
7704;DHT22;3894;49.700;10.770;2023-06-22T15:44:54;34.30;84.00
7704;DHT22;3894;49.700;10.770;2023-06-22T15:47:20;34.50;83.70